• Join FlightAware (Why Join?)
  • Login
  • US Flag 
12:02AM EDT


 

Airport Tracker/Info


-or-


 

Live Flight TrackerFlight Track Log ✈ N8752E ✈ 15-Jun-2014 ✈ KOWD - KFRG

Flight Track Log - Related Links

Times and Time Zones

All times are in EDT time to prevent confusion due to time zone crossing. See the N8752E flight status page for this flight to view local times or setup timezone preferences in your user account.

Time Position Orientation Groundspeed Altitude Reporting Facility
EDT Latitude Longitude Course Direction KTS MPH feet Rate Location/Type
04:41PM 42.2000 -71.2000 246° West 88 101 900  Level KA90
04:42PM 42.1864 -71.2419 246° West 91 105 1,600 540 Climbing Boston Center
04:43PM 42.1592 -71.2458 240° Southwest 118 136 2,200 600 Climbing Boston Center
04:44PM 42.1311 -71.2194 145° Southeast 119 137 2,900 600 Climbing Boston Center
04:45PM 42.1072 -71.1847 133° Southeast 123 142 3,500 600 Climbing Boston Center
04:46PM 42.0847 -71.1494 131° Southeast 124 143 4,200 720 Climbing Boston Center
04:47PM 42.0622 -71.1150 131° Southeast 118 136 5,000 600 Climbing Boston Center
04:48PM 42.0386 -71.0794 132° Southeast 126 145 5,500 360 Climbing Boston Center
04:48PM 42.0294 -71.0692 140° Southeast 132 152 5,500 360 Level Boston Center
04:49PM 42.0147 -71.0431 127° Southeast 130 150 5,900 300 Climbing Boston Center
04:50PM 41.9875 -71.0019 132° Southeast 134 154 6,100 60 Climbing Boston Center
04:50PM 41.9817 -70.9942 135° Southeast 151 174 6,000  Descending Boston Center
04:51PM 41.9561 -70.9592 134° Southeast 155 178 6,100  Climbing Boston Center
04:52PM 41.9164 -70.9864 207° Southwest 160 184 6,100  Level Boston Center
04:53PM 41.8753 -71.0178 210° Southwest 159 183 6,100 -60 Level Boston Center
04:54PM 41.8375 -71.0464 209° Southwest 160 184 6,000 -60 Descending Boston Center
04:55PM 41.8017 -71.0739 210° Southwest 164 189 6,000  Level Boston Center
04:56PM 41.7575 -71.1119 213° Southwest 160 184 6,100  Climbing Boston Center
04:57PM 41.7214 -71.1400 210° Southwest 155 178 6,000 -60 Descending Boston Center
04:58PM 41.6836 -71.1669 208° Southwest 154 177 6,000 -60 Level Boston Center
04:59PM 41.6469 -71.1997 214° Southwest 166 191 5,900  Descending Boston Center
05:00PM 41.6111 -71.2269 210° Southwest 159 183 6,000 120 Climbing Boston Center
05:00PM 41.6028 -71.2342 213° Southwest 161 185 6,100 60 Climbing Boston Center
05:01PM 41.5631 -71.2644 210° Southwest 161 185 6,100 -60 Level Boston Center
05:02PM 41.5311 -71.2903 211° Southwest 170 196 6,000 -120 Descending Boston Center
05:02PM 41.5228 -71.2978 214° Southwest 166 191 6,000  Level Boston Center
05:03PM 41.4922 -71.3219 211° Southwest 164 189 6,000  Level Boston Center
05:03PM 41.4808 -71.3317 213° Southwest 166 191 6,000  Level Boston Center
05:04PM 41.4489 -71.3553 209° Southwest 166 191 6,000  Level Boston Center
05:04PM 41.4411 -71.3625 215° Southwest 166 191 6,000  Level Boston Center
05:05PM 41.4047 -71.3908 210° Southwest 165 190 6,000  Level Boston Center
05:05PM 41.4014 -71.3942 217° Southwest 166 191 6,000  Level Boston Center
05:06PM 41.3658 -71.4228 211° Southwest 167 192 6,000  Level Boston Center
05:06PM 41.3636 -71.4339 255° West 164 189 6,000  Level Boston Center
05:07PM 41.3442 -71.4750 238° Southwest 153 176 6,000  Level Boston Center
05:07PM 41.3408 -71.4833 242° Southwest 157 181 6,000  Level Boston Center
05:08PM 41.3172 -71.5331 238° Southwest 158 182 6,000  Level Boston Center
05:09PM 41.2956 -71.5747 235° Southwest 160 184 6,000  Level Boston Center
05:09PM 41.2894 -71.5850 232° Southwest 158 182 6,000  Level Boston Center
05:10PM 41.2728 -71.6211 238° Southwest 159 183 6,000 60 Level Boston Center
05:10PM 41.2647 -71.6342 231° Southwest 159 183 6,100  Climbing Boston Center
05:11PM 41.2472 -71.6719 238° Southwest 157 181 6,000  Descending Boston Center
05:11PM 41.2408 -71.6822 230° Southwest 158 182 6,100  Climbing Boston Center
05:12PM 41.2244 -71.7181 239° Southwest 154 177 6,000  Descending Boston Center
05:13PM 41.2175 -71.7319 236° Southwest 147 169 6,100  Climbing Boston Center
05:13PM 41.2014 -71.7667 238° Southwest 172 198 6,000  Descending Boston Center
05:14PM 41.1922 -71.7833 234° Southwest 164 189 6,100 -120 Climbing Boston Center
05:14PM 41.1583 -71.7967 197° South 182 209 5,900  Descending Boston Center
05:15PM 41.1469 -71.7922 164° South 178 205 6,100 60 Climbing Boston Center
05:15PM 41.1144 -71.7892 176° South 175 201 6,000  Descending Boston Center
05:16PM 41.0953 -71.7858 173° South 176 203 6,100  Climbing Boston Center
05:16PM 41.0639 -71.7822 175° South 177 204 6,000  Descending Boston Center
05:17PM 41.0467 -71.7844 186° South 176 203 6,100  Climbing Boston Center
05:17PM 41.0208 -71.7919 192° South 175 201 6,000 -120 Descending Boston Center
05:18PM 41.0017 -71.7950 187° South 176 203 6,000  Level Boston Center
05:18PM 40.9717 -71.7997 187° South 174 200 6,000  Level Boston Center
05:19PM 40.9631 -71.8175 237° Southwest 177 204 6,000  Level Boston Center
05:19PM 40.9631 -71.8708 270° West 161 185 6,000  Level Boston Center
05:20PM 40.9597 -71.8864 254° West 162 186 6,000  Level Boston Center
05:20PM 40.9564 -71.9225 263° West 146 168 6,000  Level Boston Center
05:21PM 40.9533 -71.9411 258° West 156 180 6,000  Level Boston Center
05:21PM 40.9514 -71.9778 266° West 151 174 6,000 -120 Level Boston Center
05:22PM 40.9494 -71.9958 262° West 154 177 5,900 -120 Descending Boston Center
05:23PM 40.9444 -72.0519 263° West 154 177 5,900  Level Boston Center
05:24PM 40.9389 -72.1075 262° West 154 177 5,900  Level Boston Center
05:25PM 40.9336 -72.1619 263° West 153 176 5,900  Level Boston Center
05:26PM 40.9289 -72.2139 263° West 150 173 5,900  Level Boston Center
05:27PM 40.9242 -72.2683 263° West 149 171 5,900  Level Boston Center
05:28PM 40.9189 -72.3311 264° West 148 170 6,000  Climbing Boston Center
05:29PM 40.9214 -72.3833 274° West 147 169 6,000  Level Boston Center
05:30PM 40.9228 -72.4358 272° West 145 167 6,000  Level Boston Center
05:31PM 40.9239 -72.4872 272° West 145 167 6,000  Level Boston Center
05:32PM 40.9242 -72.5400 270° West 145 167 6,000  Level Boston Center
05:33PM 40.9256 -72.5917 272° West 145 167 6,000  Level Boston Center
05:34PM 40.9269 -72.6528 272° West 144 166 6,000  Level Boston Center
05:35PM 40.9278 -72.7031 271° West 144 166 6,000  Level Boston Center
05:36PM 40.9294 -72.7536 273° West 144 166 6,000  Level Boston Center
05:37PM 40.9297 -72.8056 270° West 143 165 6,000  Level Boston Center
05:38PM 40.9136 -72.8567 247° West 152 175 6,000  Level Boston Center
05:39PM 40.8997 -72.9103 251° West 152 175 6,000 -300 Level Boston Center
05:40PM 40.8814 -72.9783 250° West 160 184 5,400 -540 Descending Boston Center
05:41PM 40.8667 -73.0333 251° West 169 194 5,000 -600 Descending New York TRACON
05:42PM 40.8500 -73.1000 252° West 169 194 4,300 -720 Descending New York TRACON
05:43PM 40.8333 -73.1500 246° West 169 194 3,700 -600 Descending New York TRACON
05:44PM 40.8167 -73.2167 252° West 163 188 3,100 -360 Descending New York TRACON
05:45PM 40.8000 -73.2500 237° Southwest 143 165 3,000 -60 Descending New York TRACON
05:46PM 40.7833 -73.3167 252° West 142 163 3,000 -240 Level New York TRACON
05:47PM 40.7500 -73.3333 201° Southwest 158 182 2,600 -360 Descending New York TRACON
05:48PM 40.7167 -73.3333 180° South 151 174 2,400 -300 Descending New York TRACON
05:49PM 40.6833 -73.3333 180° South 134 154 2,100 -600 Descending New York TRACON
05:50PM 40.6833 -73.3667 270° West 119 137 1,200 -420 Descending New York TRACON
05:51PM 40.6833 -73.4167 270° West 109 125 1,300 -540 Climbing New York TRACON
05:52PM 40.7167 -73.4167 360° North 94 108 200 -1,020 Descending New York TRACON